sensor_id;sensor_type;location;lat;lon;timestamp;P1;durP1;ratioP1;P2;durP2;ratioP2
17741;SDS011;8993;51.822;-2.268;2022-11-15T00:00:20;11.07;;;0.91;;
17741;SDS011;8993;51.822;-2.268;2022-11-15T00:05:25;11.45;;;0.87;;
17741;SDS011;8993;51.822;-2.268;2022-11-15T00:10:29;11.87;;;0.87;;
17741;SDS011;8993;51.822;-2.268;2022-11-15T00:15:34;11.05;;;1.01;;
17741;SDS011;8993;51.822;-2.268;2022-11-15T00:20:37;11.22;;;0.82;;
17741;SDS011;8993;51.822;-2.268;2022-11-15T00:25:42;11.06;;;0.95;;
17741;SDS011;8993;51.822;-2.268;2022-11-15T00:30:46;10.37;;;0.84;;
17741;SDS011;8993;51.822;-2.268;2022-11-15T00:35:50;11.64;;;0.92;;
17741;SDS011;8993;51.822;-2.268;2022-11-15T00:40:55;12.86;;;0.91;;
17741;SDS011;8993;51.822;-2.268;2022-11-15T00:46:03;12.90;;;0.90;;
17741;SDS011;8993;51.822;-2.268;2022-11-15T00:51:07;12.90;;;1.01;;
17741;SDS011;8993;51.822;-2.268;2022-11-15T00:56:12;12.95;;;0.88;;
17741;SDS011;8993;51.822;-2.268;2022-11-15T01:01:16;11.17;;;0.83;;
17741;SDS011;8993;51.822;-2.268;2022-11-15T01:06:20;13.03;;;0.83;;
17741;SDS011;8993;51.822;-2.268;2022-11-15T01:11:26;12.00;;;1.00;;
17741;SDS011;8993;51.822;-2.268;2022-11-15T01:16:30;17.90;;;1.53;;
17741;SDS011;8993;51.822;-2.268;2022-11-15T01:21:35;14.26;;;0.94;;
17741;SDS011;8993;51.822;-2.268;2022-11-15T01:26:39;15.52;;;1.14;;
17741;SDS011;8993;51.822;-2.268;2022-11-15T01:31:43;12.84;;;0.99;;
17741;SDS011;8993;51.822;-2.268;2022-11-15T01:36:50;15.25;;;1.38;;
17741;SDS011;8993;51.822;-2.268;2022-11-15T01:41:54;14.64;;;1.03;;
17741;SDS011;8993;51.822;-2.268;2022-11-15T01:47:01;15.45;;;1.02;;
17741;SDS011;8993;51.822;-2.268;2022-11-15T01:52:06;15.39;;;1.10;;
17741;SDS011;8993;51.822;-2.268;2022-11-15T01:57:09;15.63;;;0.96;;
17741;SDS011;8993;51.822;-2.268;2022-11-15T02:02:14;13.24;;;0.89;;
17741;SDS011;8993;51.822;-2.268;2022-11-15T02:07:20;13.85;;;0.99;;
17741;SDS011;8993;51.822;-2.268;2022-11-15T02:12:23;13.42;;;0.92;;
17741;SDS011;8993;51.822;-2.268;2022-11-15T02:17:32;14.28;;;1.13;;
17741;SDS011;8993;51.822;-2.268;2022-11-15T02:22:35;11.55;;;0.94;;
17741;SDS011;8993;51.822;-2.268;2022-11-15T02:27:42;12.80;;;1.05;;
17741;SDS011;8993;51.822;-2.268;2022-11-15T02:32:43;11.23;;;0.92;;
17741;SDS011;8993;51.822;-2.268;2022-11-15T02:37:48;15.16;;;1.09;;
17741;SDS011;8993;51.822;-2.268;2022-11-15T02:42:53;14.12;;;1.15;;
17741;SDS011;8993;51.822;-2.268;2022-11-15T02:47:56;13.11;;;1.07;;
17741;SDS011;8993;51.822;-2.268;2022-11-15T02:53:00;16.82;;;1.15;;
17741;SDS011;8993;51.822;-2.268;2022-11-15T02:58:09;15.58;;;1.16;;
17741;SDS011;8993;51.822;-2.268;2022-11-15T03:03:14;15.24;;;1.10;;
17741;SDS011;8993;51.822;-2.268;2022-11-15T03:08:14;13.34;;;1.07;;
17741;SDS011;8993;51.822;-2.268;2022-11-15T03:13:20;13.12;;;1.14;;
17741;SDS011;8993;51.822;-2.268;2022-11-15T03:18:23;12.33;;;1.17;;
17741;SDS011;8993;51.822;-2.268;2022-11-15T03:23:26;10.75;;;0.99;;
17741;SDS011;8993;51.822;-2.268;2022-11-15T03:28:32;12.02;;;1.01;;
17741;SDS011;8993;51.822;-2.268;2022-11-15T03:33:35;11.85;;;0.97;;
17741;SDS011;8993;51.822;-2.268;2022-11-15T03:38:41;11.70;;;0.84;;
17741;SDS011;8993;51.822;-2.268;2022-11-15T03:43:46;9.22;;;0.79;;
17741;SDS011;8993;51.822;-2.268;2022-11-15T03:48:50;8.45;;;0.88;;
17741;SDS011;8993;51.822;-2.268;2022-11-15T03:53:53;10.35;;;0.78;;
17741;SDS011;8993;51.822;-2.268;2022-11-15T03:58:58;9.74;;;0.79;;
17741;SDS011;8993;51.822;-2.268;2022-11-15T04:04:02;9.32;;;0.91;;
17741;SDS011;8993;51.822;-2.268;2022-11-15T04:09:07;6.81;;;0.68;;
17741;SDS011;8993;51.822;-2.268;2022-11-15T04:14:11;6.22;;;0.63;;
17741;SDS011;8993;51.822;-2.268;2022-11-15T04:19:16;5.11;;;0.61;;
17741;SDS011;8993;51.822;-2.268;2022-11-15T04:24:20;6.26;;;0.41;;
17741;SDS011;8993;51.822;-2.268;2022-11-15T04:29:24;4.13;;;0.42;;
17741;SDS011;8993;51.822;-2.268;2022-11-15T04:34:28;3.37;;;0.50;;
17741;SDS011;8993;51.822;-2.268;2022-11-15T04:39:33;6.19;;;0.47;;
17741;SDS011;8993;51.822;-2.268;2022-11-15T04:44:37;5.33;;;0.49;;
17741;SDS011;8993;51.822;-2.268;2022-11-15T04:49:41;4.14;;;0.50;;
17741;SDS011;8993;51.822;-2.268;2022-11-15T04:54:45;3.50;;;0.43;;
17741;SDS011;8993;51.822;-2.268;2022-11-15T04:59:49;3.48;;;0.42;;
17741;SDS011;8993;51.822;-2.268;2022-11-15T05:04:54;3.72;;;0.37;;
17741;SDS011;8993;51.822;-2.268;2022-11-15T05:09:58;3.05;;;0.35;;
17741;SDS011;8993;51.822;-2.268;2022-11-15T05:15:02;3.14;;;0.41;;
17741;SDS011;8993;51.822;-2.268;2022-11-15T05:20:06;2.26;;;0.29;;
17741;SDS011;8993;51.822;-2.268;2022-11-15T05:25:11;1.97;;;0.29;;
17741;SDS011;8993;51.822;-2.268;2022-11-15T05:30:16;1.87;;;0.31;;
17741;SDS011;8993;51.822;-2.268;2022-11-15T05:35:22;2.58;;;0.30;;
17741;SDS011;8993;51.822;-2.268;2022-11-15T05:40:25;1.54;;;0.20;;
17741;SDS011;8993;51.822;-2.268;2022-11-15T05:45:29;2.36;;;0.32;;
17741;SDS011;8993;51.822;-2.268;2022-11-15T05:50:33;1.23;;;0.19;;
17741;SDS011;8993;51.822;-2.268;2022-11-15T05:55:38;1.19;;;0.15;;
17741;SDS011;8993;51.822;-2.268;2022-11-15T06:00:42;1.13;;;0.17;;
17741;SDS011;8993;51.822;-2.268;2022-11-15T06:05:47;1.51;;;0.18;;
17741;SDS011;8993;51.822;-2.268;2022-11-15T06:10:51;2.00;;;0.20;;
17741;SDS011;8993;51.822;-2.268;2022-11-15T06:15:56;1.79;;;0.21;;
17741;SDS011;8993;51.822;-2.268;2022-11-15T06:21:00;1.52;;;0.17;;
17741;SDS011;8993;51.822;-2.268;2022-11-15T06:26:04;1.72;;;0.11;;
17741;SDS011;8993;51.822;-2.268;2022-11-15T06:31:09;1.17;;;0.15;;
17741;SDS011;8993;51.822;-2.268;2022-11-15T06:36:12;1.84;;;0.18;;
17741;SDS011;8993;51.822;-2.268;2022-11-15T06:41:17;1.33;;;0.21;;
17741;SDS011;8993;51.822;-2.268;2022-11-15T06:46:21;1.38;;;0.17;;
17741;SDS011;8993;51.822;-2.268;2022-11-15T06:51:25;0.51;;;0.10;;
17741;SDS011;8993;51.822;-2.268;2022-11-15T06:56:29;2.56;;;0.18;;
17741;SDS011;8993;51.822;-2.268;2022-11-15T07:01:33;1.29;;;0.17;;
17741;SDS011;8993;51.822;-2.268;2022-11-15T07:06:38;1.15;;;0.23;;
17741;SDS011;8993;51.822;-2.268;2022-11-15T07:11:42;2.77;;;0.22;;
17741;SDS011;8993;51.822;-2.268;2022-11-15T07:16:46;1.23;;;0.23;;
17741;SDS011;8993;51.822;-2.268;2022-11-15T07:21:50;1.26;;;0.22;;
17741;SDS011;8993;51.822;-2.268;2022-11-15T07:26:55;2.54;;;0.20;;
17741;SDS011;8993;51.822;-2.268;2022-11-15T07:31:59;1.92;;;0.19;;
17741;SDS011;8993;51.822;-2.268;2022-11-15T07:37:03;1.86;;;0.20;;
17741;SDS011;8993;51.822;-2.268;2022-11-15T07:42:15;2.46;;;0.20;;
17741;SDS011;8993;51.822;-2.268;2022-11-15T07:47:09;2.52;;;0.31;;
17741;SDS011;8993;51.822;-2.268;2022-11-15T07:52:14;3.11;;;0.29;;
17741;SDS011;8993;51.822;-2.268;2022-11-15T07:57:18;1.95;;;0.24;;
17741;SDS011;8993;51.822;-2.268;2022-11-15T08:02:23;1.96;;;0.24;;
17741;SDS011;8993;51.822;-2.268;2022-11-15T08:07:28;1.50;;;0.23;;
17741;SDS011;8993;51.822;-2.268;2022-11-15T08:12:31;1.24;;;0.17;;
17741;SDS011;8993;51.822;-2.268;2022-11-15T08:17:36;2.57;;;0.27;;
17741;SDS011;8993;51.822;-2.268;2022-11-15T08:22:40;2.30;;;0.29;;
17741;SDS011;8993;51.822;-2.268;2022-11-15T08:27:44;3.17;;;0.29;;
17741;SDS011;8993;51.822;-2.268;2022-11-15T08:32:49;1.84;;;0.26;;
17741;SDS011;8993;51.822;-2.268;2022-11-15T08:37:53;2.17;;;0.15;;
17741;SDS011;8993;51.822;-2.268;2022-11-15T08:42:57;1.89;;;0.21;;
17741;SDS011;8993;51.822;-2.268;2022-11-15T08:53:07;1.39;;;0.10;;
17741;SDS011;8993;51.822;-2.268;2022-11-15T08:58:10;1.30;;;0.12;;
17741;SDS011;8993;51.822;-2.268;2022-11-15T09:03:14;2.08;;;0.16;;
17741;SDS011;8993;51.822;-2.268;2022-11-15T09:08:19;1.03;;;0.10;;
17741;SDS011;8993;51.822;-2.268;2022-11-15T09:13:23;1.01;;;0.10;;
17741;SDS011;8993;51.822;-2.268;2022-11-15T09:18:28;1.51;;;0.19;;
17741;SDS011;8993;51.822;-2.268;2022-11-15T09:23:32;1.56;;;0.14;;
17741;SDS011;8993;51.822;-2.268;2022-11-15T09:28:36;0.81;;;0.10;;
17741;SDS011;8993;51.822;-2.268;2022-11-15T09:33:42;1.44;;;0.18;;
17741;SDS011;8993;51.822;-2.268;2022-11-15T09:38:45;1.51;;;0.21;;
17741;SDS011;8993;51.822;-2.268;2022-11-15T09:43:52;2.37;;;0.22;;
17741;SDS011;8993;51.822;-2.268;2022-11-15T09:48:53;1.91;;;0.15;;
17741;SDS011;8993;51.822;-2.268;2022-11-15T09:54:00;0.48;;;0.14;;
17741;SDS011;8993;51.822;-2.268;2022-11-15T09:59:06;1.36;;;0.17;;
17741;SDS011;8993;51.822;-2.268;2022-11-15T10:04:06;0.67;;;0.09;;
17741;SDS011;8993;51.822;-2.268;2022-11-15T10:09:12;1.77;;;0.18;;
17741;SDS011;8993;51.822;-2.268;2022-11-15T10:14:16;0.63;;;0.17;;
17741;SDS011;8993;51.822;-2.268;2022-11-15T10:19:21;1.84;;;0.29;;
17741;SDS011;8993;51.822;-2.268;2022-11-15T10:24:23;1.64;;;0.33;;
17741;SDS011;8993;51.822;-2.268;2022-11-15T10:29:27;2.39;;;0.55;;
17741;SDS011;8993;51.822;-2.268;2022-11-15T10:34:34;2.17;;;0.55;;
17741;SDS011;8993;51.822;-2.268;2022-11-15T10:39:35;2.25;;;0.62;;
17741;SDS011;8993;51.822;-2.268;2022-11-15T10:44:41;2.51;;;0.59;;
17741;SDS011;8993;51.822;-2.268;2022-11-15T10:49:52;2.46;;;0.70;;
17741;SDS011;8993;51.822;-2.268;2022-11-15T10:54:50;2.91;;;0.79;;
17741;SDS011;8993;51.822;-2.268;2022-11-15T10:59:54;2.76;;;0.82;;
17741;SDS011;8993;51.822;-2.268;2022-11-15T11:04:58;2.18;;;0.82;;
17741;SDS011;8993;51.822;-2.268;2022-11-15T11:10:04;3.67;;;1.06;;
17741;SDS011;8993;51.822;-2.268;2022-11-15T11:15:09;5.88;;;2.16;;
17741;SDS011;8993;51.822;-2.268;2022-11-15T11:20:11;8.92;;;3.72;;
17741;SDS011;8993;51.822;-2.268;2022-11-15T11:25:18;13.19;;;5.67;;
17741;SDS011;8993;51.822;-2.268;2022-11-15T11:30:19;15.71;;;7.82;;
17741;SDS011;8993;51.822;-2.268;2022-11-15T11:35:24;16.22;;;8.03;;
17741;SDS011;8993;51.822;-2.268;2022-11-15T11:40:29;18.80;;;8.71;;
17741;SDS011;8993;51.822;-2.268;2022-11-15T11:45:44;18.66;;;9.33;;
17741;SDS011;8993;51.822;-2.268;2022-11-15T11:50:36;16.25;;;7.78;;
17741;SDS011;8993;51.822;-2.268;2022-11-15T11:55:42;18.74;;;8.51;;
17741;SDS011;8993;51.822;-2.268;2022-11-15T12:00:46;15.19;;;6.14;;
17741;SDS011;8993;51.822;-2.268;2022-11-15T12:05:51;13.47;;;5.00;;
17741;SDS011;8993;51.822;-2.268;2022-11-15T12:10:57;11.72;;;4.99;;
17741;SDS011;8993;51.822;-2.268;2022-11-15T12:16:01;15.06;;;4.91;;
17741;SDS011;8993;51.822;-2.268;2022-11-15T12:21:04;12.09;;;4.61;;
17741;SDS011;8993;51.822;-2.268;2022-11-15T12:26:08;13.34;;;4.45;;
17741;SDS011;8993;51.822;-2.268;2022-11-15T12:31:12;8.39;;;3.29;;
17741;SDS011;8993;51.822;-2.268;2022-11-15T12:36:30;11.13;;;3.39;;
17741;SDS011;8993;51.822;-2.268;2022-11-15T12:41:21;9.43;;;2.78;;
17741;SDS011;8993;51.822;-2.268;2022-11-15T12:46:59;6.72;;;2.37;;
17741;SDS011;8993;51.822;-2.268;2022-11-15T12:52:03;8.25;;;2.90;;
17741;SDS011;8993;51.822;-2.268;2022-11-15T12:56:36;8.15;;;3.20;;
17741;SDS011;8993;51.822;-2.268;2022-11-15T13:01:57;9.64;;;3.80;;
17741;SDS011;8993;51.822;-2.268;2022-11-15T13:06:45;7.09;;;2.94;;
17741;SDS011;8993;51.822;-2.268;2022-11-15T13:11:50;4.45;;;1.15;;
17741;SDS011;8993;51.822;-2.268;2022-11-15T13:16:56;3.16;;;0.99;;
17741;SDS011;8993;51.822;-2.268;2022-11-15T13:21:57;3.68;;;0.90;;
17741;SDS011;8993;51.822;-2.268;2022-11-15T13:27:02;3.46;;;0.49;;
17741;SDS011;8993;51.822;-2.268;2022-11-15T13:32:09;4.94;;;0.52;;
17741;SDS011;8993;51.822;-2.268;2022-11-15T13:37:11;6.01;;;0.64;;
17741;SDS011;8993;51.822;-2.268;2022-11-15T13:42:15;5.11;;;0.69;;
17741;SDS011;8993;51.822;-2.268;2022-11-15T13:47:20;5.65;;;0.75;;
17741;SDS011;8993;51.822;-2.268;2022-11-15T13:52:25;5.82;;;0.87;;
17741;SDS011;8993;51.822;-2.268;2022-11-15T13:57:32;7.99;;;0.95;;
17741;SDS011;8993;51.822;-2.268;2022-11-15T14:02:35;6.58;;;0.82;;
17741;SDS011;8993;51.822;-2.268;2022-11-15T14:07:39;4.94;;;0.57;;
17741;SDS011;8993;51.822;-2.268;2022-11-15T14:12:50;6.95;;;0.73;;
17741;SDS011;8993;51.822;-2.268;2022-11-15T14:17:48;10.73;;;0.94;;
17741;SDS011;8993;51.822;-2.268;2022-11-15T14:22:52;7.52;;;0.92;;
17741;SDS011;8993;51.822;-2.268;2022-11-15T14:28:29;7.61;;;0.68;;
17741;SDS011;8993;51.822;-2.268;2022-11-15T14:33:01;7.30;;;0.68;;
17741;SDS011;8993;51.822;-2.268;2022-11-15T14:38:05;8.82;;;0.88;;
17741;SDS011;8993;51.822;-2.268;2022-11-15T14:43:10;8.03;;;1.03;;
17741;SDS011;8993;51.822;-2.268;2022-11-15T14:48:14;8.98;;;0.88;;
17741;SDS011;8993;51.822;-2.268;2022-11-15T14:53:18;8.06;;;0.91;;
17741;SDS011;8993;51.822;-2.268;2022-11-15T14:58:25;12.08;;;0.93;;
17741;SDS011;8993;51.822;-2.268;2022-11-15T15:03:29;9.50;;;0.94;;
17741;SDS011;8993;51.822;-2.268;2022-11-15T15:08:34;11.20;;;1.09;;
17741;SDS011;8993;51.822;-2.268;2022-11-15T15:13:39;10.10;;;0.98;;
17741;SDS011;8993;51.822;-2.268;2022-11-15T15:18:43;11.33;;;1.03;;
17741;SDS011;8993;51.822;-2.268;2022-11-15T15:23:48;9.88;;;0.89;;
17741;SDS011;8993;51.822;-2.268;2022-11-15T15:28:58;13.50;;;1.18;;
17741;SDS011;8993;51.822;-2.268;2022-11-15T15:33:53;8.53;;;1.06;;
17741;SDS011;8993;51.822;-2.268;2022-11-15T15:38:58;12.13;;;1.17;;
17741;SDS011;8993;51.822;-2.268;2022-11-15T15:44:02;15.97;;;1.50;;
17741;SDS011;8993;51.822;-2.268;2022-11-15T15:49:08;15.29;;;1.35;;
17741;SDS011;8993;51.822;-2.268;2022-11-15T15:54:11;10.58;;;1.25;;
17741;SDS011;8993;51.822;-2.268;2022-11-15T15:59:16;13.53;;;1.18;;
17741;SDS011;8993;51.822;-2.268;2022-11-15T16:04:21;11.54;;;1.30;;
17741;SDS011;8993;51.822;-2.268;2022-11-15T16:09:25;11.33;;;1.39;;
17741;SDS011;8993;51.822;-2.268;2022-11-15T16:14:29;13.67;;;1.72;;
17741;SDS011;8993;51.822;-2.268;2022-11-15T16:19:33;14.05;;;1.59;;
17741;SDS011;8993;51.822;-2.268;2022-11-15T16:24:38;12.55;;;1.29;;
17741;SDS011;8993;51.822;-2.268;2022-11-15T16:29:43;13.44;;;1.54;;
17741;SDS011;8993;51.822;-2.268;2022-11-15T16:34:47;10.33;;;1.33;;
17741;SDS011;8993;51.822;-2.268;2022-11-15T16:39:51;13.56;;;1.48;;
17741;SDS011;8993;51.822;-2.268;2022-11-15T16:44:55;10.84;;;1.32;;
17741;SDS011;8993;51.822;-2.268;2022-11-15T16:49:59;11.15;;;1.38;;
17741;SDS011;8993;51.822;-2.268;2022-11-15T16:55:04;15.55;;;1.80;;
17741;SDS011;8993;51.822;-2.268;2022-11-15T17:00:10;16.38;;;2.15;;
17741;SDS011;8993;51.822;-2.268;2022-11-15T17:05:13;11.82;;;1.82;;
17741;SDS011;8993;51.822;-2.268;2022-11-15T17:10:17;13.92;;;2.32;;
17741;SDS011;8993;51.822;-2.268;2022-11-15T17:15:22;20.61;;;2.43;;
17741;SDS011;8993;51.822;-2.268;2022-11-15T17:20:26;21.12;;;3.26;;
17741;SDS011;8993;51.822;-2.268;2022-11-15T17:25:30;13.14;;;2.66;;
17741;SDS011;8993;51.822;-2.268;2022-11-15T17:30:34;14.76;;;2.59;;
17741;SDS011;8993;51.822;-2.268;2022-11-15T17:35:38;15.86;;;2.66;;
17741;SDS011;8993;51.822;-2.268;2022-11-15T17:40:43;14.79;;;2.51;;
17741;SDS011;8993;51.822;-2.268;2022-11-15T17:45:47;12.11;;;2.34;;
17741;SDS011;8993;51.822;-2.268;2022-11-15T17:50:53;12.72;;;2.34;;
17741;SDS011;8993;51.822;-2.268;2022-11-15T17:55:58;19.68;;;2.76;;
17741;SDS011;8993;51.822;-2.268;2022-11-15T18:01:04;18.93;;;3.68;;
17741;SDS011;8993;51.822;-2.268;2022-11-15T18:06:04;14.56;;;1.92;;
17741;SDS011;8993;51.822;-2.268;2022-11-15T18:11:09;16.15;;;1.85;;
17741;SDS011;8993;51.822;-2.268;2022-11-15T18:16:14;9.30;;;1.19;;
17741;SDS011;8993;51.822;-2.268;2022-11-15T18:21:18;8.69;;;0.80;;
17741;SDS011;8993;51.822;-2.268;2022-11-15T18:26:22;5.64;;;0.61;;
17741;SDS011;8993;51.822;-2.268;2022-11-15T18:31:27;6.86;;;0.58;;
17741;SDS011;8993;51.822;-2.268;2022-11-15T18:36:30;6.75;;;0.61;;
17741;SDS011;8993;51.822;-2.268;2022-11-15T18:41:34;6.71;;;0.88;;
17741;SDS011;8993;51.822;-2.268;2022-11-15T18:46:40;4.23;;;0.57;;
17741;SDS011;8993;51.822;-2.268;2022-11-15T18:51:44;4.65;;;0.60;;
17741;SDS011;8993;51.822;-2.268;2022-11-15T18:56:49;4.80;;;0.68;;
17741;SDS011;8993;51.822;-2.268;2022-11-15T19:01:53;5.52;;;0.59;;
17741;SDS011;8993;51.822;-2.268;2022-11-15T19:06:57;5.12;;;0.62;;
17741;SDS011;8993;51.822;-2.268;2022-11-15T19:12:01;8.53;;;0.62;;
17741;SDS011;8993;51.822;-2.268;2022-11-15T19:17:06;5.21;;;0.71;;
17741;SDS011;8993;51.822;-2.268;2022-11-15T19:22:10;7.08;;;0.75;;
17741;SDS011;8993;51.822;-2.268;2022-11-15T19:27:14;5.36;;;0.75;;
17741;SDS011;8993;51.822;-2.268;2022-11-15T19:32:18;6.62;;;0.80;;
17741;SDS011;8993;51.822;-2.268;2022-11-15T19:37:22;4.76;;;0.68;;
17741;SDS011;8993;51.822;-2.268;2022-11-15T19:42:27;6.36;;;0.68;;
17741;SDS011;8993;51.822;-2.268;2022-11-15T19:47:31;6.78;;;0.77;;
17741;SDS011;8993;51.822;-2.268;2022-11-15T19:52:35;6.62;;;0.71;;
17741;SDS011;8993;51.822;-2.268;2022-11-15T19:57:40;5.65;;;0.66;;
17741;SDS011;8993;51.822;-2.268;2022-11-15T20:02:44;4.87;;;0.63;;
17741;SDS011;8993;51.822;-2.268;2022-11-15T20:07:48;4.75;;;0.64;;
17741;SDS011;8993;51.822;-2.268;2022-11-15T20:12:52;6.21;;;0.58;;
17741;SDS011;8993;51.822;-2.268;2022-11-15T20:17:57;6.01;;;0.67;;
17741;SDS011;8993;51.822;-2.268;2022-11-15T20:23:01;5.78;;;0.55;;
17741;SDS011;8993;51.822;-2.268;2022-11-15T20:28:05;5.01;;;0.65;;
17741;SDS011;8993;51.822;-2.268;2022-11-15T20:33:10;7.09;;;0.59;;
17741;SDS011;8993;51.822;-2.268;2022-11-15T20:38:14;5.46;;;0.65;;
17741;SDS011;8993;51.822;-2.268;2022-11-15T20:43:18;4.44;;;0.49;;
17741;SDS011;8993;51.822;-2.268;2022-11-15T20:48:24;5.77;;;0.65;;
17741;SDS011;8993;51.822;-2.268;2022-11-15T20:53:29;4.40;;;0.63;;
17741;SDS011;8993;51.822;-2.268;2022-11-15T20:58:33;4.50;;;0.59;;
17741;SDS011;8993;51.822;-2.268;2022-11-15T21:03:37;6.18;;;0.78;;
17741;SDS011;8993;51.822;-2.268;2022-11-15T21:08:41;4.15;;;0.58;;
17741;SDS011;8993;51.822;-2.268;2022-11-15T21:13:46;4.05;;;0.61;;
17741;SDS011;8993;51.822;-2.268;2022-11-15T21:18:52;4.09;;;0.63;;
17741;SDS011;8993;51.822;-2.268;2022-11-15T21:23:56;2.96;;;0.62;;
17741;SDS011;8993;51.822;-2.268;2022-11-15T21:29:01;4.13;;;0.58;;
17741;SDS011;8993;51.822;-2.268;2022-11-15T21:34:05;3.36;;;0.51;;
17741;SDS011;8993;51.822;-2.268;2022-11-15T21:39:09;4.84;;;0.63;;
17741;SDS011;8993;51.822;-2.268;2022-11-15T21:44:15;5.53;;;0.68;;
17741;SDS011;8993;51.822;-2.268;2022-11-15T21:49:19;4.29;;;0.56;;
17741;SDS011;8993;51.822;-2.268;2022-11-15T21:54:23;3.69;;;0.48;;
17741;SDS011;8993;51.822;-2.268;2022-11-15T21:59:27;4.27;;;0.49;;
17741;SDS011;8993;51.822;-2.268;2022-11-15T22:04:32;3.78;;;0.49;;
17741;SDS011;8993;51.822;-2.268;2022-11-15T22:09:36;6.20;;;0.57;;
17741;SDS011;8993;51.822;-2.268;2022-11-15T22:14:40;5.16;;;0.66;;
17741;SDS011;8993;51.822;-2.268;2022-11-15T22:19:44;5.69;;;0.66;;
17741;SDS011;8993;51.822;-2.268;2022-11-15T22:24:48;5.52;;;0.50;;
17741;SDS011;8993;51.822;-2.268;2022-11-15T22:29:53;3.90;;;0.45;;
17741;SDS011;8993;51.822;-2.268;2022-11-15T22:34:58;5.88;;;0.51;;
17741;SDS011;8993;51.822;-2.268;2022-11-15T22:40:03;4.87;;;0.42;;
17741;SDS011;8993;51.822;-2.268;2022-11-15T22:45:06;6.16;;;0.55;;
17741;SDS011;8993;51.822;-2.268;2022-11-15T22:50:10;5.84;;;0.73;;
17741;SDS011;8993;51.822;-2.268;2022-11-15T22:55:16;3.46;;;0.54;;
17741;SDS011;8993;51.822;-2.268;2022-11-15T23:00:20;4.95;;;0.54;;
17741;SDS011;8993;51.822;-2.268;2022-11-15T23:05:25;4.24;;;0.59;;
17741;SDS011;8993;51.822;-2.268;2022-11-15T23:10:29;4.26;;;0.56;;
17741;SDS011;8993;51.822;-2.268;2022-11-15T23:15:34;4.68;;;0.60;;
17741;SDS011;8993;51.822;-2.268;2022-11-15T23:20:38;6.94;;;0.61;;
17741;SDS011;8993;51.822;-2.268;2022-11-15T23:25:42;4.90;;;0.63;;
17741;SDS011;8993;51.822;-2.268;2022-11-15T23:30:47;5.17;;;0.63;;
17741;SDS011;8993;51.822;-2.268;2022-11-15T23:35:52;4.89;;;0.70;;
17741;SDS011;8993;51.822;-2.268;2022-11-15T23:40:55;6.35;;;0.74;;
17741;SDS011;8993;51.822;-2.268;2022-11-15T23:45:59;8.11;;;0.78;;
17741;SDS011;8993;51.822;-2.268;2022-11-15T23:51:03;7.09;;;0.95;;
17741;SDS011;8993;51.822;-2.268;2022-11-15T23:56:09;5.51;;;0.75;;
